Time;durP1;ratioP1;P1;durP2;ratioP2;P2;SDS_P1;SDS_P2;PMS_P1;PMS_P2;Temp;Humidity;BMP_temperature;BMP_pressure;BME280_temperature;BME280_humidity;BME280_pressure;Samples;Min_cycle;Max_cycle;Signal;HPM_P1;HPM_P2
2022/12/20 00:00:52;;;;;;;8.70;2.60;;;;;;;15.10;100.00;102104.25;2097206;28;20072;-77
2022/12/20 00:02:14;;;;;;;7.63;2.15;;;;;;;15.11;100.00;102106.94;2105948;28;20503;-77
2022/12/20 00:03:36;;;;;;;9.00;2.72;;;;;;;15.11;100.00;102103.38;2094361;28;20053;-77
2022/12/20 00:04:58;;;;;;;7.03;2.65;;;;;;;15.10;100.00;102109.56;2091677;28;20044;-76
2022/12/20 00:06:21;;;;;;;8.50;2.67;;;;;;;15.12;100.00;102107.84;2098658;28;20055;-77
2022/12/20 00:07:44;;;;;;;9.90;2.67;;;;;;;15.12;100.00;102107.84;2102038;28;20040;-77
2022/12/20 00:09:08;;;;;;;10.90;3.50;;;;;;;15.10;100.00;102105.16;2102601;28;20090;-77
2022/12/20 00:10:30;;;;;;;17.52;3.95;;;;;;;15.10;100.00;102107.81;2103018;28;20032;-77
2022/12/20 00:11:52;;;;;;;8.65;3.13;;;;;;;15.10;100.00;102106.91;2101973;28;20052;-77
2022/12/20 00:13:14;;;;;;;11.63;3.35;;;;;;;15.09;100.00;102102.47;2101160;28;20062;-76
2022/12/20 00:14:36;;;;;;;11.32;2.92;;;;;;;15.07;100.00;102096.22;2094180;28;20456;-77
2022/12/20 00:16:06;;;;;;;10.02;2.70;;;;;;;15.06;100.00;102095.31;2099140;28;20582;-76
2022/12/20 00:17:29;;;;;;;8.68;2.90;;;;;;;15.03;100.00;102105.03;2099629;28;20044;-77
2022/12/20 00:18:51;;;;;;;8.60;3.03;;;;;;;15.02;100.00;102100.56;2087605;28;20084;-77
2022/12/20 00:20:14;;;;;;;10.20;2.95;;;;;;;15.00;100.00;102103.19;2097643;28;20076;-77
2022/12/20 00:21:37;;;;;;;11.13;3.03;;;;;;;14.99;100.00;102096.06;2101726;28;20097;-76
2022/12/20 00:22:58;;;;;;;10.48;2.65;;;;;;;14.99;100.00;102106.72;2102926;28;20056;-77
2022/12/20 00:24:20;;;;;;;13.10;3.17;;;;;;;14.98;100.00;102104.03;2102612;28;20062;-77
2022/12/20 00:25:42;;;;;;;11.10;2.63;;;;;;;14.98;100.00;102101.34;2100237;28;20048;-77
2022/12/20 00:27:04;;;;;;;9.50;2.60;;;;;;;14.96;100.00;102111.09;2102636;28;20097;-77
2022/12/20 00:28:25;;;;;;;9.88;2.65;;;;;;;14.94;100.00;102108.41;2096807;28;20040;-77
2022/12/20 00:29:47;;;;;;;8.02;2.67;;;;;;;14.94;100.00;102103.09;2098199;28;20051;-76
2022/12/20 00:31:13;;;;;;;8.57;2.67;;;;;;;14.96;100.00;102095.13;2094966;28;20068;-76
2022/12/20 00:32:35;;;;;;;7.18;2.15;;;;;;;14.96;100.00;102105.78;2104111;28;20048;-77
2022/12/20 00:33:59;;;;;;;8.63;2.80;;;;;;;14.95;100.00;102098.66;2092940;28;20048;-76
2022/12/20 00:35:21;;;;;;;13.52;2.75;;;;;;;14.94;100.00;102108.41;2092142;28;20215;-77
2022/12/20 00:36:44;;;;;;;7.63;2.60;;;;;;;14.94;100.00;102097.75;2091440;28;20056;-77
2022/12/20 00:38:05;;;;;;;15.90;3.05;;;;;;;14.96;100.00;102098.69;2091454;28;20040;-77
2022/12/20 00:39:27;;;;;;;11.50;2.80;;;;;;;14.97;100.00;102100.47;2099407;28;20043;-75
2022/12/20 00:40:59;;;;;;;9.07;2.50;;;;;;;14.99;100.00;102100.50;2093697;28;20060;-77
2022/12/20 00:42:21;;;;;;;9.20;2.78;;;;;;;14.98;100.00;102096.94;2088297;28;20053;-76
2022/12/20 00:43:42;;;;;;;8.70;2.83;;;;;;;14.98;100.00;102098.69;2083299;28;20492;-77
2022/12/20 00:45:06;;;;;;;12.18;3.00;;;;;;;14.98;100.00;102094.28;2083025;28;20080;-77
2022/12/20 00:46:30;;;;;;;9.40;2.95;;;;;;;14.96;100.00;102093.38;2093188;28;20044;-77
2022/12/20 00:47:54;;;;;;;10.15;2.63;;;;;;;14.94;100.00;102099.53;2100465;28;20087;-77
2022/12/20 00:49:16;;;;;;;9.98;3.08;;;;;;;14.94;100.00;102080.91;2096629;28;20040;-77
2022/12/20 00:50:37;;;;;;;8.55;2.30;;;;;;;14.92;100.00;102079.97;2101419;28;20036;-77
2022/12/20 00:52:00;;;;;;;10.38;2.35;;;;;;;14.91;100.00;102075.50;2104502;28;20612;-77
2022/12/20 00:53:21;;;;;;;8.15;3.05;;;;;;;14.90;100.00;102071.97;2102313;28;20055;-77
2022/12/20 00:54:43;;;;;;;8.85;2.47;;;;;;;14.88;100.00;102081.69;2093644;28;20090;-76
2022/12/20 00:56:06;;;;;;;6.88;2.35;;;;;;;14.88;100.00;102072.81;2099768;28;20047;-77
2022/12/20 00:57:28;;;;;;;8.52;2.60;;;;;;;14.85;100.00;102073.66;2094189;28;20103;-76
2022/12/20 00:58:52;;;;;;;8.65;2.78;;;;;;;14.85;100.00;102075.41;2091534;28;20425;-77
2022/12/20 01:00:14;;;;;;;14.32;2.38;;;;;;;14.85;100.00;102081.63;2100141;28;20051;-75
2022/12/20 01:01:38;;;;;;;8.63;2.08;;;;;;;14.84;100.00;102078.91;2093728;28;20582;-77
2022/12/20 01:02:59;;;;;;;10.38;2.45;;;;;;;14.79;100.00;102076.19;2094172;28;20040;-76
2022/12/20 01:04:23;;;;;;;9.13;2.60;;;;;;;14.80;100.00;102074.44;2093941;28;20047;-76
2022/12/20 01:05:50;;;;;;;10.18;3.10;;;;;;;14.81;100.00;102078.88;2089411;28;20044;-77
2022/12/20 01:07:13;;;;;;;7.50;2.67;;;;;;;14.79;100.00;102068.22;2086307;28;20755;-77
2022/12/20 01:08:34;;;;;;;7.13;2.33;;;;;;;14.80;100.00;102067.34;2091717;28;20052;-76
2022/12/20 01:09:57;;;;;;;11.10;2.47;;;;;;;14.78;100.00;102071.72;2097845;28;20423;-76
2022/12/20 01:11:22;;;;;;;8.10;2.28;;;;;;;14.80;100.00;102071.75;2096471;28;20071;-76
2022/12/20 01:12:45;;;;;;;8.27;2.55;;;;;;;14.78;100.00;102066.41;2102880;28;20048;-77
2022/12/20 01:14:11;;;;;;;10.18;2.45;;;;;;;14.79;100.00;102064.66;2093994;28;20049;-77
2022/12/20 01:15:35;;;;;;;8.82;2.67;;;;;;;14.77;100.00;102065.50;2099352;28;20056;-77
2022/12/20 01:16:59;;;;;;;9.15;2.35;;;;;;;14.76;100.00;102068.16;2101842;28;20044;-77
2022/12/20 01:18:20;;;;;;;5.97;2.30;;;;;;;14.73;100.00;102066.34;2104757;28;20040;-76
2022/12/20 01:19:43;;;;;;;10.77;2.70;;;;;;;14.71;100.00;102068.06;2096559;28;20066;-76
2022/12/20 01:21:06;;;;;;;6.82;2.00;;;;;;;14.71;100.00;102067.16;2090672;28;20048;-77
2022/12/20 01:22:28;;;;;;;12.52;2.67;;;;;;;14.70;100.00;102055.63;2099554;28;20087;-77
2022/12/20 01:23:51;;;;;;;8.20;2.47;;;;;;;14.70;100.00;102060.06;2102457;28;20060;-77
2022/12/20 01:25:12;;;;;;;7.80;2.33;;;;;;;14.70;100.00;102049.44;2093143;28;20032;-76
2022/12/20 01:26:34;;;;;;;7.55;2.58;;;;;;;14.69;100.00;102051.22;2091021;28;20048;-77
2022/12/20 01:27:57;;;;;;;10.98;2.97;;;;;;;14.70;100.00;102054.75;2088006;28;20559;-77
2022/12/20 01:29:18;;;;;;;9.13;3.15;;;;;;;14.68;100.00;102056.47;2097978;28;20040;-77
2022/12/20 01:30:42;;;;;;;6.15;2.25;;;;;;;14.66;100.00;102053.78;2104263;28;20131;-76
2022/12/20 01:32:06;;;;;;;8.80;2.42;;;;;;;14.66;100.00;102042.25;2092696;28;20064;-76
2022/12/20 01:33:27;;;;;;;7.93;2.40;;;;;;;14.65;100.00;102041.34;2091119;28;20044;-76
2022/12/20 01:34:49;;;;;;;10.85;2.35;;;;;;;14.64;100.00;102039.56;2101268;28;20079;-76
2022/12/20 01:36:12;;;;;;;10.75;3.20;;;;;;;14.64;100.00;102054.59;2095842;28;20412;-77
2022/12/20 01:37:35;;;;;;;5.70;2.00;;;;;;;14.65;100.00;102043.13;2095545;28;20052;-76
2022/12/20 01:38:57;;;;;;;7.05;2.20;;;;;;;14.64;100.00;102044.88;2099224;28;20051;-76
2022/12/20 01:40:19;;;;;;;7.63;2.42;;;;;;;14.64;100.00;102036.00;2101232;28;20044;-76
2022/12/20 01:41:43;;;;;;;10.43;2.05;;;;;;;14.63;100.00;102042.22;2093931;28;20048;-76
2022/12/20 01:43:06;;;;;;;9.75;2.38;;;;;;;14.63;100.00;102042.22;2099306;28;20058;-76
2022/12/20 01:45:05;;;;;;;9.05;2.40;;;;;;;14.63;100.00;102044.88;2093779;28;20043;-77
2022/12/20 01:46:28;;;;;;;6.93;1.90;;;;;;;14.63;100.00;102039.56;2104905;28;20080;-76
2022/12/20 01:47:52;;;;;;;7.13;2.13;;;;;;;14.63;100.00;102042.22;2109687;28;20067;-76
2022/12/20 01:49:19;;;;;;;7.80;2.42;;;;;;;14.61;100.00;102031.53;2104062;28;20060;-77
2022/12/20 01:50:40;;;;;;;11.00;2.75;;;;;;;14.58;100.00;102036.78;2093417;28;20066;-76
2022/12/20 01:52:06;;;;;;;5.85;1.83;;;;;;;14.58;100.00;102033.22;2101029;28;20044;-76
2022/12/20 01:53:28;;;;;;;9.98;2.42;;;;;;;14.57;100.00;102029.66;2102478;28;20047;-77
2022/12/20 01:54:54;;;;;;;9.65;2.50;;;;;;;14.60;100.00;102036.81;2101706;28;20050;-77
2022/12/20 01:56:15;;;;;;;8.15;2.13;;;;;;;14.59;100.00;102035.91;2102602;28;20078;-77
2022/12/20 01:57:44;;;;;;;5.90;2.15;;;;;;;14.62;100.00;102024.47;2091902;28;20153;-77
2022/12/20 01:59:06;;;;;;;8.43;2.45;;;;;;;14.61;100.00;102031.53;2084676;28;20045;-77
2022/12/20 02:00:29;;;;;;;7.22;2.88;;;;;;;14.61;100.00;102028.00;2085315;28;20063;-77
2022/12/20 02:01:51;;;;;;;17.30;2.97;;;;;;;14.59;100.00;102024.41;2091122;28;20044;-77
2022/12/20 02:03:15;;;;;;;6.18;2.60;;;;;;;14.58;100.00;102023.50;2097497;28;20096;-77
2022/12/20 02:04:38;;;;;;;8.30;2.40;;;;;;;14.56;100.00;102021.69;2092970;28;20060;-78
2022/12/20 02:06:14;;;;;;;12.07;2.85;;;;;;;14.56;100.00;102019.03;2098022;28;20043;-77
2022/12/20 02:07:38;;;;;;;10.02;2.95;;;;;;;14.55;100.00;102017.25;2087371;28;20051;-77
2022/12/20 02:09:03;;;;;;;10.40;3.20;;;;;;;14.55;100.00;102019.91;2085859;28;20052;-77
2022/12/20 02:10:35;;;;;;;13.02;3.05;;;;;;;14.56;100.00;102024.34;2095379;28;20051;-77
2022/12/20 02:12:09;;;;;;;9.75;2.55;;;;;;;14.57;100.00;102010.22;2086603;28;20547;-78
2022/12/20 02:13:42;;;;;;;16.02;3.60;;;;;;;14.54;100.00;102010.13;2104019;28;20044;-76
2022/12/20 02:15:13;;;;;;;;;;;;;;;14.46;100.00;102017.03;2098078;28;20041;-77
2022/12/20 02:16:43;;;;;;;12.68;3.38;;;;;;;14.49;100.00;102011.81;2093440;28;19959;-77
2022/12/20 02:18:22;;;;;;;11.00;3.00;;;;;;;14.49;100.00;101995.88;2093965;28;20055;-76
2022/12/20 02:20:10;;;;;;;12.18;3.53;;;;;;;14.47;100.00;102016.19;2095725;28;20062;-77
2022/12/20 02:21:39;;;;;;;11.25;2.90;;;;;;;14.45;100.00;102020.56;2096487;28;20051;-76
2022/12/20 02:23:22;;;;;;;8.55;2.85;;;;;;;14.43;100.00;102017.91;2102871;28;20048;-77
2022/12/20 02:25:02;;;;;;;14.27;3.35;;;;;;;14.43;100.00;102009.03;2087720;28;20045;-77
2022/12/20 02:26:58;;;;;;;13.10;3.08;;;;;;;14.43;100.00;102030.28;2102408;28;20652;-76
2022/12/20 02:28:41;;;;;;;14.30;3.38;;;;;;;14.44;100.00;102008.19;2092500;28;20174;-77
2022/12/20 02:30:11;;;;;;;7.60;2.40;;;;;;;14.43;100.00;102011.69;2103789;28;20052;-77
2022/12/20 02:31:41;;;;;;;7.50;2.75;;;;;;;14.44;100.00;102026.78;2087866;28;20049;-77
2022/12/20 02:33:07;;;;;;;12.40;2.75;;;;;;;14.44;100.00;102008.19;2100232;28;20063;-78
2022/12/20 02:34:32;;;;;;;12.25;2.85;;;;;;;14.43;100.00;102017.00;2100738;28;20086;-77
2022/12/20 02:35:54;;;;;;;12.30;2.63;;;;;;;14.41;100.00;102010.75;2093098;28;20041;-76
2022/12/20 02:37:17;;;;;;;13.57;2.95;;;;;;;14.41;100.00;102016.97;2083094;28;20412;-78
2022/12/20 02:38:39;;;;;;;10.60;2.90;;;;;;;14.39;100.00;102007.16;2082828;28;20037;-77
2022/12/20 02:40:02;;;;;;;14.30;3.50;;;;;;;14.38;100.00;102021.31;2091198;28;20041;-77
2022/12/20 02:41:30;;;;;;;8.48;2.70;;;;;;;14.39;100.00;102020.44;2092731;28;20052;-78
2022/12/20 02:42:57;;;;;;;7.40;2.67;;;;;;;14.41;100.00;102024.03;2086123;28;20147;-78
2022/12/20 02:46:04;;;;;;;6.05;2.25;;;;;;;14.37;100.00;102017.75;2095254;28;20399;-77
2022/12/20 02:47:31;;;;;;;7.53;2.42;;;;;;;14.39;100.00;102015.13;2090311;28;20393;-77
2022/12/20 02:48:54;;;;;;;9.75;2.50;;;;;;;14.41;100.00;102013.41;2090957;28;20075;-78
2022/12/20 02:50:22;;;;;;;9.55;3.05;;;;;;;14.39;100.00;102010.72;2098452;28;20060;-78
2022/12/20 02:51:47;;;;;;;12.45;3.03;;;;;;;14.36;100.00;102015.94;2088619;28;20098;-78
2022/12/20 02:53:09;;;;;;;9.02;2.30;;;;;;;14.34;100.00;102007.94;2102864;28;20044;-77
2022/12/20 02:54:34;;;;;;;9.07;2.33;;;;;;;14.32;100.00;102009.66;2097512;28;20055;-77
2022/12/20 02:56:03;;;;;;;13.07;2.83;;;;;;;14.34;100.00;102012.34;2103369;28;20069;-76
2022/12/20 02:57:32;;;;;;;9.23;2.53;;;;;;;14.36;100.00;102010.63;2104478;28;20044;-76
2022/12/20 02:58:57;;;;;;;11.23;2.40;;;;;;;14.36;100.00;102002.66;2095058;28;20033;-77
2022/12/20 03:00:22;;;;;;;10.18;2.70;;;;;;;14.35;100.00;102014.16;2108768;28;20465;-76
2022/12/20 03:01:50;;;;;;;11.55;3.25;;;;;;;14.34;100.00;102001.72;2103922;28;20406;-77
2022/12/20 03:03:21;;;;;;;6.65;2.58;;;;;;;14.32;100.00;102012.31;2094822;28;20409;-76
2022/12/20 03:04:44;;;;;;;11.70;3.15;;;;;;;14.30;100.00;102008.75;2103052;28;20502;-77
2022/12/20 03:06:08;;;;;;;14.57;3.30;;;;;;;14.30;100.00;102013.16;2101809;28;20052;-75
2022/12/20 03:07:33;;;;;;;10.05;2.47;;;;;;;14.29;100.00;102014.94;2096021;28;20424;-77
2022/12/20 03:08:55;;;;;;;9.95;2.50;;;;;;;14.30;100.00;102018.50;2096149;28;20115;-76
2022/12/20 03:10:20;;;;;;;9.18;2.40;;;;;;;14.28;100.00;102025.50;2095325;28;20043;-76
2022/12/20 03:11:42;;;;;;;;;;;;;;;14.23;100.00;102013.91;2088495;28;20087;-77
2022/12/20 03:13:04;;;;;;;12.32;2.92;;;;;;;14.21;100.00;102019.19;2083889;28;20741;-76
2022/12/20 03:14:28;;;;;;;12.15;3.20;;;;;;;14.22;100.00;102013.00;2094652;28;20127;-76
2022/12/20 03:15:52;;;;;;;11.20;2.78;;;;;;;14.23;100.00;102016.56;2079580;28;20044;-76
2022/12/20 03:17:16;;;;;;;11.57;2.88;;;;;;;14.23;100.00;102005.94;2089278;28;20587;-77
2022/12/20 03:18:37;;;;;;;7.65;2.45;;;;;;;14.23;100.00;101998.88;2092483;28;20602;-77
2022/12/20 03:20:00;;;;;;;9.15;3.28;;;;;;;14.23;100.00;102011.25;2098899;28;20087;-76
2022/12/20 03:21:23;;;;;;;10.02;3.28;;;;;;;14.22;100.00;102006.81;2095005;28;20055;-76
2022/12/20 03:22:44;;;;;;;8.13;2.92;;;;;;;14.23;100.00;102014.81;2093130;28;20139;-76
2022/12/20 03:24:07;;;;;;;8.55;2.65;;;;;;;14.23;100.00;102012.16;2100282;28;20638;-77
2022/12/20 03:25:29;;;;;;;12.15;3.22;;;;;;;14.22;100.00;102009.47;2094619;28;20563;-77
2022/12/20 03:26:53;;;;;;;10.73;2.95;;;;;;;14.21;100.00;102003.25;2092462;28;20062;-77
2022/12/20 03:28:17;;;;;;;11.07;3.35;;;;;;;14.19;100.00;102009.38;2092168;28;20634;-77
2022/12/20 03:29:40;;;;;;;12.88;3.22;;;;;;;14.18;100.00;102013.78;2091858;28;20050;-77
2022/12/20 03:31:01;;;;;;;8.40;2.33;;;;;;;14.19;100.00;102020.91;2092571;28;20049;-77
2022/12/20 03:32:28;;;;;;;9.90;3.55;;;;;;;14.22;100.00;102012.09;2094111;28;20075;-77
2022/12/20 03:33:51;;;;;;;10.13;2.70;;;;;;;14.22;100.00;102017.41;2100773;28;20051;-77
2022/12/20 03:35:13;;;;;;;12.77;3.40;;;;;;;14.22;100.00;102020.06;2094072;28;20416;-77
2022/12/20 03:36:36;;;;;;;7.93;2.80;;;;;;;14.21;100.00;102021.84;2093705;28;20041;-77
2022/12/20 03:38:00;;;;;;;9.32;2.65;;;;;;;14.20;100.00;102014.72;2098776;28;20043;-77
2022/12/20 03:39:22;;;;;;;9.20;2.83;;;;;;;14.19;100.00;102023.56;2103286;28;20044;-77
2022/12/20 03:40:46;;;;;;;10.10;2.90;;;;;;;14.20;100.00;102022.69;2094073;28;20056;-77
2022/12/20 03:42:14;;;;;;;8.45;2.60;;;;;;;14.17;100.00;102025.31;2092544;28;20044;-77
2022/12/20 03:43:36;;;;;;;10.10;2.72;;;;;;;14.17;100.00;102012.03;2083036;28;20097;-77
2022/12/20 03:45:00;;;;;;;10.73;2.42;;;;;;;14.16;100.00;102010.22;2094930;28;20053;-77
2022/12/20 03:46:23;;;;;;;8.93;2.70;;;;;;;14.15;100.00;102020.81;2091720;28;20144;-76
2022/12/20 03:47:47;;;;;;;12.18;3.22;;;;;;;14.16;100.00;102027.91;2093926;28;20048;-76
2022/12/20 03:49:10;;;;;;;14.60;3.53;;;;;;;14.16;100.00;102030.56;2084109;28;20137;-77
2022/12/20 03:50:39;;;;;;;9.05;3.05;;;;;;;14.15;100.00;102018.16;2093877;28;20052;-77
2022/12/20 03:52:02;;;;;;;8.20;2.70;;;;;;;14.17;100.00;102032.38;2086618;28;20053;-77
2022/12/20 03:53:25;;;;;;;7.50;2.78;;;;;;;14.17;100.00;102025.31;2093265;28;20147;-77
2022/12/20 03:54:47;;;;;;;7.88;2.55;;;;;;;14.17;100.00;102019.09;2091686;28;20056;-76
2022/12/20 03:56:13;;;;;;;9.82;2.90;;;;;;;14.15;100.00;102021.72;2086801;28;20084;-77
2022/12/20 03:57:35;;;;;;;6.80;2.67;;;;;;;14.15;100.00;102026.13;2092184;28;20041;-77
2022/12/20 03:59:00;;;;;;;9.07;2.78;;;;;;;14.14;100.00;102025.22;2086367;28;20045;-77
2022/12/20 04:00:21;;;;;;;9.30;2.53;;;;;;;14.16;100.00;102023.50;2086410;28;20497;-77
2022/12/20 04:01:47;;;;;;;8.15;2.40;;;;;;;14.13;100.00;102015.47;2095106;28;20080;-77
2022/12/20 04:03:11;;;;;;;8.13;2.30;;;;;;;14.13;100.00;102023.44;2086194;28;20053;-77
2022/12/20 04:04:34;;;;;;;8.70;3.13;;;;;;;14.13;100.00;102025.19;2091986;28;20044;-76
2022/12/20 04:05:55;;;;;;;7.15;2.70;;;;;;;14.13;100.00;102026.09;2096874;28;20056;-77
2022/12/20 04:07:17;;;;;;;9.05;2.35;;;;;;;14.12;100.00;102031.34;2101732;28;20047;-77
2022/12/20 04:08:41;;;;;;;7.95;3.05;;;;;;;14.12;100.00;102032.25;2097176;28;20053;-76
2022/12/20 04:10:05;;;;;;;8.77;2.40;;;;;;;14.13;100.00;102028.75;2098959;28;20052;-76
2022/12/20 04:11:27;;;;;;;10.75;2.88;;;;;;;14.13;100.00;102026.09;2085863;28;20064;-76
2022/12/20 04:13:10;;;;;;;9.98;3.95;;;;;;;14.12;100.00;102026.03;2088939;28;20095;-77
2022/12/20 04:14:32;;;;;;;7.85;2.83;;;;;;;14.15;100.00;102021.72;2092129;28;20075;-76
2022/12/20 04:15:54;;;;;;;12.48;2.42;;;;;;;14.14;100.00;102033.19;2094422;28;20139;-76
2022/12/20 04:17:18;;;;;;;10.02;3.05;;;;;;;14.14;100.00;102037.59;2094743;28;20051;-75
2022/12/20 04:18:41;;;;;;;13.32;4.95;;;;;;;14.14;100.00;102032.28;2086270;28;20143;-77
2022/12/20 04:20:17;;;;;;;11.10;2.95;;;;;;;14.13;100.00;102027.84;2089330;28;20040;-76
2022/12/20 04:21:41;;;;;;;9.82;3.15;;;;;;;14.12;100.00;102024.28;2103333;28;20055;-76
2022/12/20 04:23:03;;;;;;;6.60;2.70;;;;;;;14.11;100.00;102029.59;2102684;28;20048;-76
2022/12/20 04:24:25;;;;;;;11.88;2.58;;;;;;;14.11;100.00;102025.16;2093487;28;20262;-77
2022/12/20 04:26:07;;;;;;;8.95;2.38;;;;;;;14.14;100.00;102024.31;2088672;28;20075;-76
2022/12/20 04:27:29;;;;;;;12.25;3.00;;;;;;;14.14;100.00;102029.63;2093727;28;20048;-77
2022/12/20 04:28:52;;;;;;;;;;;;;;;14.11;100.00;102019.84;2086419;28;20063;-77
2022/12/20 04:30:15;;;;;;;11.35;2.50;;;;;;;14.13;100.00;102022.53;2103806;28;19927;-77
2022/12/20 04:31:36;;;;;;;7.93;2.33;;;;;;;14.12;100.00;102016.31;2096964;28;20090;-76
2022/12/20 04:32:59;;;;;;;9.20;2.15;;;;;;;14.08;100.00;102009.16;2095204;28;20134;-77
2022/12/20 04:34:24;;;;;;;8.90;2.17;;;;;;;14.09;100.00;102015.38;2100396;28;20502;-77
2022/12/20 04:35:46;;;;;;;10.05;2.50;;;;;;;14.08;100.00;102017.13;2096078;28;20096;-76
2022/12/20 04:37:09;;;;;;;10.27;3.35;;;;;;;14.09;100.00;102023.34;2090662;28;20140;-77
2022/12/20 04:38:40;;;;;;;11.35;2.35;;;;;;;14.09;100.00;102028.66;2093483;28;20151;-77
2022/12/20 04:40:03;;;;;;;9.68;2.70;;;;;;;14.07;100.00;102023.28;2093452;28;20052;-77
2022/12/20 04:41:40;;;;;;;9.57;2.13;;;;;;;14.05;100.00;102026.78;2098879;28;20055;-77
2022/12/20 04:43:08;;;;;;;8.65;2.35;;;;;;;14.05;100.00;102027.66;2102813;28;20221;-77
2022/12/20 04:44:31;;;;;;;7.28;2.90;;;;;;;14.05;100.00;102009.09;2094242;28;20040;-77
2022/12/20 04:45:56;;;;;;;8.07;2.72;;;;;;;14.06;100.00;102021.50;2093772;28;20594;-76
2022/12/20 04:47:18;;;;;;;8.35;2.47;;;;;;;14.05;100.00;102010.84;2094480;28;20052;-77
2022/12/20 04:48:41;;;;;;;10.57;2.40;;;;;;;14.03;100.00;102020.56;2099905;28;20063;-77
2022/12/20 04:50:07;;;;;;;9.15;2.47;;;;;;;13.99;100.00;102019.56;2101669;28;20055;-77
2022/12/20 04:51:29;;;;;;;11.50;2.90;;;;;;;13.95;100.00;102015.06;2086853;28;20056;-77
2022/12/20 04:54:36;;;;;;;8.38;2.70;;;;;;;13.94;100.00;102023.91;2087718;28;20063;-76
2022/12/20 04:56:08;;;;;;;10.93;2.95;;;;;;;13.94;100.00;102016.81;2095467;28;20154;-76
2022/12/20 04:57:30;;;;;;;9.75;2.40;;;;;;;13.95;100.00;102017.72;2085742;28;20663;-77
2022/12/20 04:58:54;;;;;;;;;;;;;;;13.90;100.00;102017.63;2087505;28;20052;-76
2022/12/20 05:00:16;;;;;;;11.55;2.72;;;;;;;13.93;100.00;102014.13;2092763;28;19920;-77
2022/12/20 05:01:41;;;;;;;9.15;2.75;;;;;;;13.96;100.00;102006.25;2094144;28;20049;-76
2022/12/20 05:03:03;;;;;;;7.85;2.45;;;;;;;13.98;100.00;102004.50;2085910;28;20057;-77
2022/12/20 05:04:25;;;;;;;9.70;3.05;;;;;;;13.98;100.00;102013.38;2099361;28;20345;-77
2022/12/20 05:05:48;;;;;;;11.13;3.08;;;;;;;14.01;100.00;102007.22;2088282;28;20041;-76
2022/12/20 05:07:11;;;;;;;18.58;2.72;;;;;;;14.03;100.00;102007.28;2086896;28;20047;-76
2022/12/20 05:08:35;;;;;;;7.57;2.33;;;;;;;14.03;100.00;102015.25;2100139;28;20039;-76
2022/12/20 05:09:57;;;;;;;6.70;2.17;;;;;;;14.03;100.00;102008.19;2096391;28;20481;-77
2022/12/20 05:11:19;;;;;;;11.55;2.88;;;;;;;14.04;100.00;102017.94;2091197;28;20455;-77
2022/12/20 05:12:41;;;;;;;11.65;2.58;;;;;;;14.04;100.00;102006.41;2091364;28;20045;-76
2022/12/20 05:14:08;;;;;;;9.43;3.00;;;;;;;14.03;100.00;102010.84;2091964;28;20048;-77
2022/12/20 05:15:29;;;;;;;5.70;2.25;;;;;;;14.03;100.00;102008.19;2093982;28;20143;-76
2022/12/20 05:16:52;;;;;;;10.93;2.75;;;;;;;14.04;100.00;102009.06;2091084;28;20040;-76
2022/12/20 05:18:14;;;;;;;9.70;2.72;;;;;;;14.04;100.00;102007.31;2099518;28;20055;-76
2022/12/20 05:19:45;;;;;;;8.93;2.65;;;;;;;14.03;100.00;102002.88;2088335;28;20084;-77
2022/12/20 05:26:25;;;;;;;7.72;2.28;;;;;;;14.01;100.00;102001.03;2102514;28;20043;-76
2022/12/20 05:27:46;;;;;;;7.15;2.15;;;;;;;14.01;100.00;102006.34;2087983;28;20079;-77
2022/12/20 05:29:08;;;;;;;11.00;2.65;;;;;;;14.02;100.00;102016.09;2099029;28;20097;-77
2022/12/20 05:30:31;;;;;;;7.10;2.58;;;;;;;14.02;100.00;102016.09;2094604;28;20044;-77
2022/12/20 05:31:53;;;;;;;10.70;3.28;;;;;;;14.02;100.00;102001.06;2091369;28;20056;-77
2022/12/20 05:33:15;;;;;;;7.68;2.22;;;;;;;14.02;100.00;102018.75;2090993;28;20427;-76
2022/12/20 05:34:39;;;;;;;11.50;2.55;;;;;;;14.02;100.00;102013.44;2090589;28;20047;-76
2022/12/20 05:36:01;;;;;;;13.98;3.80;;;;;;;14.01;100.00;102001.94;2091583;28;20048;-77
2022/12/20 05:37:25;;;;;;;10.15;2.65;;;;;;;14.00;100.00;102007.19;2090286;28;20567;-77
2022/12/20 05:38:48;;;;;;;10.45;2.42;;;;;;;14.00;100.00;101989.50;2107260;28;20097;-77
2022/12/20 05:40:13;;;;;;;12.02;2.70;;;;;;;14.02;100.00;102005.47;2098438;28;20144;-77
2022/12/20 05:41:35;;;;;;;6.05;2.25;;;;;;;14.03;100.00;102004.63;2098270;28;20555;-76
2022/12/20 05:42:57;;;;;;;8.43;2.20;;;;;;;14.03;100.00;102008.19;2092909;28;20147;-77
2022/12/20 05:44:28;;;;;;;14.90;2.88;;;;;;;14.03;100.00;102008.19;2092806;28;20045;-76
2022/12/20 05:45:52;;;;;;;11.75;2.80;;;;;;;14.04;100.00;102001.09;2092263;28;20401;-76
2022/12/20 05:47:24;;;;;;;12.50;4.88;;;;;;;14.05;100.00;101995.81;2094230;28;20045;-77
2022/12/20 05:48:55;;;;;;;14.82;6.22;;;;;;;14.05;100.00;102003.78;2091011;28;20040;-76
2022/12/20 05:50:17;;;;;;;16.40;5.35;;;;;;;14.08;100.00;102003.84;2098474;28;20693;-77
2022/12/20 05:51:59;;;;;;;10.70;3.30;;;;;;;14.07;100.00;102012.69;2103577;28;20048;-76
2022/12/20 05:53:25;;;;;;;13.23;2.97;;;;;;;14.10;100.00;102007.44;2100747;28;20063;-75
2022/12/20 05:54:50;;;;;;;7.60;2.90;;;;;;;14.11;100.00;102013.66;2093632;28;20052;-76
2022/12/20 05:56:14;;;;;;;9.18;3.90;;;;;;;14.10;100.00;102012.75;2092529;28;20058;-78
2022/12/20 05:57:35;;;;;;;9.70;3.40;;;;;;;14.10;100.00;102002.13;2093094;28;20032;-76
2022/12/20 05:58:58;;;;;;;11.98;3.40;;;;;;;14.09;100.00;101989.72;2097274;28;20044;-76
2022/12/20 06:00:21;;;;;;;10.48;3.70;;;;;;;14.08;100.00;101998.53;2088849;28;20071;-76
2022/12/20 06:01:46;;;;;;;10.85;2.85;;;;;;;14.08;100.00;102011.81;2090896;28;20369;-77
2022/12/20 06:03:12;;;;;;;11.05;3.83;;;;;;;14.12;100.00;102003.03;2087044;28;20077;-77
2022/12/20 06:04:35;;;;;;;9.05;3.42;;;;;;;14.14;100.00;102009.28;2093088;28;20555;-77
2022/12/20 06:06:02;;;;;;;10.52;3.20;;;;;;;14.16;100.00;102015.53;2091373;28;20127;-77
2022/12/20 06:07:28;;;;;;;12.90;3.90;;;;;;;14.18;100.00;102012.88;2086974;28;20124;-76
2022/12/20 06:08:56;;;;;;;9.60;3.58;;;;;;;14.18;100.00;102005.81;2093116;28;20056;-76
2022/12/20 06:10:31;;;;;;;12.10;3.47;;;;;;;14.18;100.00;102010.22;2100870;28;20104;-76
2022/12/20 06:11:54;;;;;;;14.27;3.20;;;;;;;14.20;100.00;102014.72;2093889;28;20114;-77
2022/12/20 06:13:17;;;;;;;11.43;4.15;;;;;;;14.22;100.00;102023.63;2091409;28;20049;-77
2022/12/20 06:14:40;;;;;;;11.43;3.63;;;;;;;14.23;100.00;102017.47;2091068;28;20064;-76
2022/12/20 06:16:02;;;;;;;9.38;3.15;;;;;;;14.23;100.00;102014.81;2089313;28;20551;-77
2022/12/20 06:17:26;;;;;;;9.70;2.88;;;;;;;14.22;100.00;102018.31;2090245;28;20041;-78
2022/12/20 06:18:49;;;;;;;8.02;3.05;;;;;;;14.22;100.00;102025.38;2093371;28;20060;-76
2022/12/20 06:20:13;;;;;;;10.15;3.58;;;;;;;14.20;100.00;102024.44;2088194;28;20033;-76
2022/12/20 06:21:38;;;;;;;10.13;3.63;;;;;;;14.18;100.00;102013.78;2100830;28;20415;-76
2022/12/20 06:23:01;;;;;;;11.70;3.75;;;;;;;14.19;100.00;102017.34;2087954;28;20041;-77
2022/12/20 06:24:29;;;;;;;15.77;3.45;;;;;;;14.22;100.00;102022.72;2100807;28;20095;-76
2022/12/20 06:25:52;;;;;;;14.60;4.22;;;;;;;14.25;100.00;102030.75;2097048;28;20072;-77
2022/12/20 06:27:17;;;;;;;10.52;2.92;;;;;;;14.30;100.00;102031.75;2109704;28;20086;-77
2022/12/20 06:28:41;;;;;;;10.18;2.97;;;;;;;14.35;100.00;102019.47;2097856;28;20101;-76
2022/12/20 06:30:06;;;;;;;9.13;2.63;;;;;;;14.36;100.00;102031.88;2092303;28;20063;-77
2022/12/20 06:31:40;;;;;;;9.77;2.75;;;;;;;14.36;100.00;102031.88;2110288;28;20067;-77
2022/12/20 06:33:03;;;;;;;9.85;2.60;;;;;;;14.32;100.00;102030.00;2106192;28;20102;-76
2022/12/20 06:34:24;;;;;;;11.02;2.72;;;;;;;14.32;100.00;102014.97;2094325;28;20132;-76
2022/12/20 06:35:47;;;;;;;8.82;2.83;;;;;;;14.32;100.00;102017.63;2094971;28;20052;-76
2022/12/20 06:37:09;;;;;;;14.20;5.18;;;;;;;14.34;100.00;102018.56;2101034;28;20048;-76